Aviation Digital Data Service (ADDS)

Output produced by METARs form (0855 UTC 19 November 2018)
found at http://www.aviationweather.gov/metar/data/
 
RJFF 190830Z 35007KT 330V040 9999 FEW030 SCT035 15/07 Q1019 NOSIG RMK 1CU030 3CU035 A3011
RJFF 190800Z 03005KT 280V090 9999 FEW025 SCT030 14/09 Q1019 NOSIG RMK 1CU025 3CU030 A3010
TAF RJFF 190506Z 1906/2012 01012KT 9999 FEW020 SCT030 BKN045 
     BECMG 1913/1915 14003KT 
     BECMG 2000/2003 34011KT 
     BECMG 2009/2012 14004KT